createdAt,value
2023-04-30T00:09:21.075Z,10.37
2023-04-30T00:24:23.753Z,10.31
2023-04-30T00:39:26.377Z,10.23
2023-04-30T00:54:29.280Z,10.16
2023-04-30T01:09:32.233Z,10.07
2023-04-30T01:24:56.339Z,9.99
2023-04-30T01:40:21.291Z,9.90
2023-04-30T01:55:36.075Z,9.78
2023-04-30T02:10:38.822Z,9.52
2023-04-30T02:25:41.810Z,9.15
2023-04-30T02:40:44.474Z,8.65
2023-04-30T02:55:47.368Z,8.13
2023-04-30T03:10:49.983Z,7.67
2023-04-30T03:25:52.808Z,7.21
2023-04-30T03:40:56.150Z,6.92
2023-04-30T03:55:58.899Z,6.78
2023-04-30T04:11:01.736Z,7.56
2023-04-30T04:26:04.388Z,9.50
2023-04-30T04:41:06.916Z,11.66
2023-04-30T04:56:14.714Z,13.72
2023-04-30T05:11:17.485Z,15.43
2023-04-30T05:26:20.088Z,16.92
2023-04-30T05:41:22.791Z,16.46
2023-04-30T05:56:25.760Z,17.64
2023-04-30T06:11:30.007Z,19.44
2023-04-30T06:26:32.728Z,20.37
2023-04-30T06:41:35.365Z,21.62
2023-04-30T06:56:38.033Z,21.52
2023-04-30T07:11:40.723Z,22.39
2023-04-30T07:26:43.421Z,22.39
2023-04-30T07:41:46.124Z,22.35
2023-04-30T07:56:48.963Z,20.99
2023-04-30T08:11:51.906Z,19.78
2023-04-30T08:26:54.948Z,19.30
2023-04-30T08:42:05.909Z,19.51
2023-04-30T08:57:08.747Z,19.92
2023-04-30T09:12:18.417Z,21.70
2023-04-30T09:27:23.004Z,20.93
2023-04-30T09:42:25.771Z,19.66
2023-04-30T09:57:32.340Z,20.38
2023-04-30T10:12:51.466Z,20.85
2023-04-30T10:27:54.122Z,19.96
2023-04-30T10:42:56.897Z,19.36
2023-04-30T10:57:59.820Z,18.62
2023-04-30T11:13:07.644Z,18.80
2023-04-30T11:28:19.615Z,18.33
2023-04-30T11:43:23.021Z,17.99
2023-04-30T11:58:26.374Z,18.11
2023-04-30T12:13:31.952Z,17.92
2023-04-30T12:28:35.409Z,17.47
2023-04-30T12:43:38.004Z,17.14
2023-04-30T12:58:49.680Z,16.90
2023-04-30T13:13:52.396Z,16.81
2023-04-30T13:28:55.555Z,16.70
2023-04-30T13:43:59.991Z,16.31
2023-04-30T13:59:03.076Z,16.03
2023-04-30T14:14:06.044Z,16.02
2023-04-30T14:29:09.703Z,15.98
2023-04-30T14:44:12.424Z,15.80
2023-04-30T14:59:15.581Z,15.70
2023-04-30T15:14:18.574Z,15.47
2023-04-30T15:29:21.915Z,15.32
2023-04-30T15:44:24.540Z,15.14
2023-04-30T15:59:27.661Z,14.97
2023-04-30T16:14:30.982Z,14.75
2023-04-30T16:29:33.704Z,14.41
2023-04-30T16:44:36.950Z,14.16
2023-04-30T16:59:39.524Z,13.94
2023-04-30T17:14:42.139Z,13.65
2023-04-30T17:29:44.895Z,13.47
2023-04-30T17:44:48.826Z,13.19
2023-04-30T17:59:51.465Z,12.80
2023-04-30T18:14:54.143Z,12.44
2023-04-30T18:29:57.028Z,11.92
2023-04-30T18:45:05.790Z,11.56
2023-04-30T19:00:09.879Z,11.13
2023-04-30T19:15:14.995Z,10.60
2023-04-30T19:30:17.735Z,10.01
2023-04-30T19:45:21.251Z,9.35
2023-04-30T20:00:26.089Z,8.85
2023-04-30T20:15:28.814Z,8.22
2023-04-30T20:30:32.942Z,7.63
2023-04-30T20:45:36.363Z,7.04
2023-04-30T21:00:39.275Z,6.45
2023-04-30T21:15:43.120Z,6.05
2023-04-30T21:30:45.854Z,5.64
2023-04-30T21:45:49.096Z,5.32
2023-04-30T22:00:52.635Z,5.05
2023-04-30T22:15:55.890Z,4.79
2023-04-30T22:30:59.808Z,4.51
2023-04-30T22:46:03.341Z,4.30
2023-04-30T23:01:06.051Z,4.05
2023-04-30T23:16:10.430Z,3.91
2023-04-30T23:31:13.262Z,3.81
2023-04-30T23:46:16.459Z,3.60
